»·PEaware :: N283PU KLAS-L35

N283PU :: KLAS-L35

FLIGHT INFORMATION

Flight Status: Arrived
Operator: Privately registered:
United States
More flights under this callsign
Pilot: Anonymous 18083 (18083)
Aircraft: DIAMOND DA-42 TWINSTAR
(DA42)
More flights by this aircraft type
Origin: KLAS McCarran Intl
United States
Destination: L35 Big Bear City
United States
More flights between these airports :: More routes between these airports
Route: +V538 GFS V210 HEC
File this flight plan on PilotEdge
Remarks: Sample flight plan
Altitude:
(Current/Filed)
10,000ft
Speed:
(Current/Filed)
150kts
Departed: 25-Mar-18 01:55 PM
Arrived: 25-Mar-18 03:11 PM
Distance/Time
Traveled:
137nm/1:16
Distance/Time
To Go:
Arrived

Flight Plot

Page will automatically refresh every two minutes.

Flight plan parsing failed; only flown route is shown


Map Options




Map Legend


Flown Route
Filed Route
Departure Airport
Arrival Airport
Navaid (VOR, NDB)
Fix

Horizontal Profiles

Position Reports

Time Latitude Longitude Heading Altitude Ground
Speed
25-Mar-18 13:22 36.080936 -115.172078 89 2171ft 0kts
25-Mar-18 13:23 36.080936 -115.172078 89 2171ft 0kts
25-Mar-18 13:24 36.080936 -115.172078 89 2171ft 0kts
25-Mar-18 13:26 36.080936 -115.172078 89 2171ft 0kts
25-Mar-18 13:27 36.080936 -115.172063 92 2171ft 0kts
25-Mar-18 13:28 36.080936 -115.172063 92 2171ft 0kts
25-Mar-18 13:29 36.080936 -115.172063 92 2171ft 0kts
25-Mar-18 13:30 36.080936 -115.172063 92 2171ft 0kts
25-Mar-18 13:31 36.080936 -115.172063 92 2171ft 0kts
25-Mar-18 13:32 36.080936 -115.172063 92 2171ft 0kts
25-Mar-18 13:33 36.080936 -115.172063 92 2171ft 0kts
25-Mar-18 13:34 36.080936 -115.172063 92 2171ft 0kts
25-Mar-18 13:35 36.080936 -115.172063 92 2171ft 0kts
25-Mar-18 13:36 36.080936 -115.172063 92 2171ft 0kts
25-Mar-18 13:37 36.080936 -115.172063 92 2171ft 0kts
25-Mar-18 13:38 36.080936 -115.172063 92 2171ft 0kts
25-Mar-18 13:39 36.080936 -115.172063 92 2171ft 0kts
25-Mar-18 13:40 36.080936 -115.172063 92 2171ft 0kts
25-Mar-18 13:41 36.080936 -115.172062 92 2171ft 0kts
25-Mar-18 13:42 36.080936 -115.172063 92 2171ft 0kts
25-Mar-18 13:43 36.080936 -115.172063 92 2171ft 0kts
25-Mar-18 13:44 36.080936 -115.172063 92 2171ft 0kts
25-Mar-18 13:45 36.080936 -115.172063 92 2171ft 0kts
25-Mar-18 13:46 36.080936 -115.172063 92 2171ft 0kts
25-Mar-18 13:47 36.081053 -115.170975 91 2168ft 5kts
25-Mar-18 13:48 36.082089 -115.169318 26 2163ft 5kts
25-Mar-18 13:49 36.084229 -115.168163 27 2156ft 11kts
25-Mar-18 13:50 36.087959 -115.165568 26 2139ft 18kts
25-Mar-18 13:51 36.093152 -115.162596 26 2114ft 21kts
25-Mar-18 13:52 36.098680 -115.159421 24 2093ft 19kts
25-Mar-18 13:53 36.099853 -115.157513 87 2085ft 4kts
25-Mar-18 13:54 36.093574 -115.159913 207 2166ft 81kts
25-Mar-18 13:55 36.073262 -115.168465 186 3353ft 82kts
25-Mar-18 13:56 36.050107 -115.170634 186 4575ft 85kts
25-Mar-18 13:57 36.021078 -115.172463 186 5019ft 134kts
25-Mar-18 13:58 35.981226 -115.174116 178 5030ft 148kts
25-Mar-18 13:59 35.944030 -115.171338 183 5829ft 122kts
25-Mar-18 14:00 35.911107 -115.170522 185 6709ft 117kts
25-Mar-18 14:01 35.878561 -115.170251 188 7529ft 119kts
25-Mar-18 14:02 35.846064 -115.170283 188 8407ft 117kts
25-Mar-18 14:03 35.814025 -115.170383 188 9326ft 112kts
25-Mar-18 14:04 35.783246 -115.170575 189 10253ft 108kts
25-Mar-18 14:05 35.756776 -115.170544 192 11404ft 87kts
25-Mar-18 14:06 35.729582 -115.171223 190 11931ft 123kts
25-Mar-18 14:07 35.691348 -115.171757 187 12007ft 149kts
25-Mar-18 14:08 35.648967 -115.172012 187 12004ft 154kts
25-Mar-18 14:09 35.606104 -115.172292 187 12056ft 152kts
25-Mar-18 14:10 35.564444 -115.172648 187 12062ft 154kts
25-Mar-18 14:11 35.523036 -115.172996 187 12062ft 154kts
25-Mar-18 14:12 35.480005 -115.173368 187 12062ft 154kts
25-Mar-18 14:13 35.437142 -115.173754 187 12062ft 154kts
25-Mar-18 14:14 35.410649 -115.196833 270 12069ft 141kts
25-Mar-18 14:15 35.404277 -115.244183 253 12064ft 141kts
25-Mar-18 14:16 35.389442 -115.289671 245 12066ft 147kts
25-Mar-18 14:17 35.370430 -115.334435 242 12064ft 148kts
25-Mar-18 14:18 35.349751 -115.378415 241 12064ft 149kts
25-Mar-18 14:19 35.328426 -115.421981 240 12063ft 149kts
25-Mar-18 14:20 35.306879 -115.465272 240 12064ft 149kts
25-Mar-18 14:21 35.285129 -115.508646 240 12064ft 149kts
25-Mar-18 14:22 35.263386 -115.551847 240 12064ft 149kts
25-Mar-18 14:23 35.241636 -115.594993 240 12063ft 149kts
25-Mar-18 14:24 35.219827 -115.638165 240 12063ft 149kts
25-Mar-18 14:25 35.198161 -115.680640 239 12066ft 150kts
25-Mar-18 14:26 35.176200 -115.723834 239 12085ft 149kts
25-Mar-18 14:27 35.154334 -115.766888 239 12101ft 149kts
25-Mar-18 14:28 35.132453 -115.809946 239 12112ft 149kts
25-Mar-18 14:29 35.110462 -115.853179 239 12119ft 149kts
25-Mar-18 14:30 35.088525 -115.896260 239 12121ft 149kts
25-Mar-18 14:31 35.066560 -115.939317 239 12120ft 149kts
25-Mar-18 14:32 35.044524 -115.982467 239 12120ft 149kts
25-Mar-18 14:33 35.022567 -116.025434 239 12123ft 149kts
25-Mar-18 14:34 35.000521 -116.068528 239 12128ft 149kts
25-Mar-18 14:35 34.978454 -116.111613 239 12133ft 150kts
25-Mar-18 14:36 34.956502 -116.154393 239 12138ft 149kts
25-Mar-18 14:37 34.934451 -116.197313 239 12140ft 149kts
25-Mar-18 14:38 34.912264 -116.240505 239 12139ft 150kts
25-Mar-18 14:39 34.890148 -116.283154 239 12137ft 151kts
25-Mar-18 14:40 34.867692 -116.326340 239 12132ft 151kts
25-Mar-18 14:41 34.844619 -116.370919 239 11950ft 155kts
25-Mar-18 14:42 34.822030 -116.414576 239 11946ft 151kts
25-Mar-18 14:43 34.799597 -116.457887 238 11946ft 151kts
25-Mar-18 14:44 34.764162 -116.485077 215 11947ft 154kts
25-Mar-18 14:45 34.728133 -116.513207 215 11946ft 154kts
25-Mar-18 14:46 34.691807 -116.540505 215 11948ft 154kts
25-Mar-18 14:47 34.655273 -116.567685 215 11950ft 154kts
25-Mar-18 14:48 34.619227 -116.594403 215 12021ft 152kts
25-Mar-18 14:49 34.582719 -116.621434 215 12019ft 154kts
25-Mar-18 14:50 34.546198 -116.648431 215 12016ft 154kts
25-Mar-18 14:51 34.510186 -116.675018 214 12019ft 154kts
25-Mar-18 14:52 34.473543 -116.702052 214 12019ft 154kts
25-Mar-18 14:53 34.436781 -116.729141 214 12019ft 154kts
25-Mar-18 14:54 34.400083 -116.756150 214 12018ft 154kts
25-Mar-18 14:55 34.361351 -116.775864 158 12020ft 165kts
25-Mar-18 14:56 34.341506 -116.727016 91 12028ft 174kts
25-Mar-18 14:57 34.340360 -116.668300 91 12017ft 175kts
25-Mar-18 14:58 34.339546 -116.609386 91 12016ft 175kts
25-Mar-18 14:59 34.338749 -116.550598 91 12027ft 174kts
25-Mar-18 15:00 34.320782 -116.507977 200 12047ft 156kts
25-Mar-18 15:01 34.298815 -116.549384 235 12074ft 149kts
25-Mar-18 15:02 34.272680 -116.587022 246 12229ft 145kts
25-Mar-18 15:03 34.268429 -116.634466 266 11824ft 140kts
25-Mar-18 15:04 34.267003 -116.681450 267 11220ft 143kts
25-Mar-18 15:05 34.263021 -116.725417 265 10807ft 102kts
25-Mar-18 15:06 34.263478 -116.759217 273 9885ft 100kts
25-Mar-18 15:07 34.263379 -116.792672 270 8706ft 99kts
25-Mar-18 15:08 34.263757 -116.824046 269 7472ft 92kts
25-Mar-18 15:09 34.263830 -116.849512 261 6758ft 61kts
25-Mar-18 15:10 34.262942 -116.853132 203 6751ft 0kts
25-Mar-18 15:11 34.262823 -116.853231 241 6751ft 0kts

Navigation Log

Ident Type
Flight plan parsing failed, navigation log unavailable